Buoy 16575

sailwx.info

Track history (hours):
 
Tides and Currents Weather Stations Pressure Air Temp Water Temp Dewpoint Dewpoint Depression Visibility Wind Speed Wind Dir Waves Ship Positions

Drifting buoy 16575

Last reported at 2015-Apr-30 15:10 UTC. Time now 2015-Aug-28 19:18 UTC.
Position S 31°37' E 031°28'.
Warning: this ship's position is months out of date.

Date/timePositionNaut miles runAvg speedWind from/ knotsBaromVisibWave heightAir tempDewpointWater temp
2015-Apr-30 15:10S 31°37' E 031°28'3 1.3
2015-Apr-30 13:10S 31°36' E 031°26'2 1.1
2015-Apr-30 11:10S 31°35' E 031°24'7 1.8
2015-Apr-30 07:10S 31°30' E 031°17'0 0.1
2015-Apr-30 06:10S 31°30' E 031°17'1 1.1
2015-Apr-30 05:10S 31°29' E 031°16'4 2.0
2015-Apr-30 03:10S 31°27' E 031°12'18 1.3
2015-Apr-29 13:10S 31°16' E 030°55'2 2.0
2015-Apr-29 12:10S 31°15' E 030°53'12 1.3
2015-Apr-29 03:10S 31°04' E 030°46'6 1.2
2015-Apr-28 22:10S 30°59' E 030°44'8 1.3
2015-Apr-28 16:10S 30°51' E 030°46'13 1.3
2015-Apr-28 06:10S 30°39' E 030°49'2 0.8
2015-Apr-28 04:10S 30°37' E 030°50'4 1.4
2015-Apr-28 01:10S 30°33' E 030°52'2 1.0
2015-Apr-27 23:10S 30°31' E 030°53'2 1.9
2015-Apr-27 22:10S 30°30' E 030°54'15 0.8
2015-Apr-27 02:10S 30°25' E 031°11'9 1.0
2015-Apr-26 17:10S 30°23' E 031°22'14 1.1
2015-Apr-26 05:10S 30°15' E 031°34'2 1.1
2015-Apr-26 03:10S 30°13' E 031°36'29 1.9
2015-Apr-25 12:10S 29°55' E 032°02'16 2.1
2015-Apr-25 04:10S 29°39' E 032°07'3 2.8
2015-Apr-25 03:10S 29°36' E 032°07'25 2.1
2015-Apr-24 15:10S 29°13' E 032°18'3 1.3
2015-Apr-24 13:10S 29°11' E 032°20'17 1.5
2015-Apr-24 02:10S 28°55' E 032°27'9 2.3
2015-Apr-23 22:10S 28°47' E 032°31'5 5.3
2015-Apr-23 21:10S 28°42' E 032°34'1 0.6
2015-Apr-23 19:10S 28°41' E 032°35'3 1.7
2015-Apr-23 17:10S 28°38' E 032°37'2 1.2
2015-Apr-23 15:10S 28°37' E 032°39'6 1.3
2015-Apr-23 10:10S 28°32' E 032°45'2 0.6
2015-Apr-23 07:10S 28°31' E 032°45'8 2.5
2015-Apr-23 04:10S 28°23' E 032°42'4 4.5
2015-Apr-23 03:10S 28°19' E 032°43'8 2.7
2015-Apr-23 00:10S 28°11' E 032°45'4 4.4
2015-Apr-22 23:10S 28°07' E 032°45'17 2.4
2015-Apr-22 16:10S 27°50' E 032°45'4 2.1
2015-Apr-22 14:10S 27°46' E 032°46'3 3.4
2015-Apr-22 13:10S 27°43' E 032°48'3 1.1
2015-Apr-22 10:10S 27°40' E 032°50'13 2.2
2015-Apr-22 04:10S 27°26' E 032°52'6 1.6
2015-Apr-22 00:10S 27°21' E 032°56'0 0.2
2015-Apr-21 22:10S 27°21' E 032°55'2 1.0
2015-Apr-21 20:10S 27°19' E 032°57'1 0.7
2015-Apr-21 19:10S 27°19' E 032°57'1 0.9
2015-Apr-21 18:10S 27°18' E 032°57'2 2.5
2015-Apr-21 17:10S 27°15' E 032°58'0 0.0
2015-Apr-21 16:10S 27°15' E 032°58'2 1.8
2015-Apr-21 15:10S 27°14' E 032°60'2 1.2
2015-Apr-21 13:10S 27°12' E 033°01'6 0.8
2015-Apr-21 06:10S 27°08' E 033°06'1 0.8 28.7
2015-Apr-21 05:10S 27°08' E 033°07'2 1.9 28.7
2015-Apr-21 04:10S 27°06' E 033°08'4 0.7 28.7
2015-Apr-20 22:10S 27°04' E 033°13'9 1.3 28.8
2015-Apr-20 15:10S 26°59' E 033°20'   29.1
Track history (hours):
 
Tides and Currents Weather Stations Pressure Air Temp Water Temp Dewpoint Dewpoint Depression Visibility Wind Speed Wind Dir Waves Ship Positions

Drifting buoy 16575

Last reported at 2015-Apr-30 15:10 UTC. Time now 2015-Aug-28 19:18 UTC.
Position S 31°37' E 031°28'.
Warning: this ship's position is months out of date.

Date/timePositionNaut miles runAvg speedWind from/ knotsBaromVisibWave heightAir tempDewpointWater temp
2015-Apr-30 15:10S 31°37' E 031°28'3 1.3
2015-Apr-30 13:10S 31°36' E 031°26'2 1.1
2015-Apr-30 11:10S 31°35' E 031°24'7 1.8
2015-Apr-30 07:10S 31°30' E 031°17'0 0.1
2015-Apr-30 06:10S 31°30' E 031°17'1 1.1
2015-Apr-30 05:10S 31°29' E 031°16'4 2.0
2015-Apr-30 03:10S 31°27' E 031°12'18 1.3
2015-Apr-29 13:10S 31°16' E 030°55'2 2.0
2015-Apr-29 12:10S 31°15' E 030°53'12 1.3
2015-Apr-29 03:10S 31°04' E 030°46'6 1.2
2015-Apr-28 22:10S 30°59' E 030°44'8 1.3
2015-Apr-28 16:10S 30°51' E 030°46'13 1.3
2015-Apr-28 06:10S 30°39' E 030°49'2 0.8
2015-Apr-28 04:10S 30°37' E 030°50'4 1.4
2015-Apr-28 01:10S 30°33' E 030°52'2 1.0
2015-Apr-27 23:10S 30°31' E 030°53'2 1.9
2015-Apr-27 22:10S 30°30' E 030°54'15 0.8
2015-Apr-27 02:10S 30°25' E 031°11'9 1.0
2015-Apr-26 17:10S 30°23' E 031°22'14 1.1
2015-Apr-26 05:10S 30°15' E 031°34'2 1.1
2015-Apr-26 03:10S 30°13' E 031°36'29 1.9
2015-Apr-25 12:10S 29°55' E 032°02'16 2.1
2015-Apr-25 04:10S 29°39' E 032°07'3 2.8
2015-Apr-25 03:10S 29°36' E 032°07'25 2.1
2015-Apr-24 15:10S 29°13' E 032°18'3 1.3
2015-Apr-24 13:10S 29°11' E 032°20'17 1.5
2015-Apr-24 02:10S 28°55' E 032°27'9 2.3
2015-Apr-23 22:10S 28°47' E 032°31'5 5.3
2015-Apr-23 21:10S 28°42' E 032°34'1 0.6
2015-Apr-23 19:10S 28°41' E 032°35'3 1.7
2015-Apr-23 17:10S 28°38' E 032°37'2 1.2
2015-Apr-23 15:10S 28°37' E 032°39'6 1.3
2015-Apr-23 10:10S 28°32' E 032°45'2 0.6
2015-Apr-23 07:10S 28°31' E 032°45'8 2.5
2015-Apr-23 04:10S 28°23' E 032°42'4 4.5
2015-Apr-23 03:10S 28°19' E 032°43'8 2.7
2015-Apr-23 00:10S 28°11' E 032°45'4 4.4
2015-Apr-22 23:10S 28°07' E 032°45'17 2.4
2015-Apr-22 16:10S 27°50' E 032°45'4 2.1
2015-Apr-22 14:10S 27°46' E 032°46'3 3.4
2015-Apr-22 13:10S 27°43' E 032°48'3 1.1
2015-Apr-22 10:10S 27°40' E 032°50'13 2.2
2015-Apr-22 04:10S 27°26' E 032°52'6 1.6
2015-Apr-22 00:10S 27°21' E 032°56'0 0.2
2015-Apr-21 22:10S 27°21' E 032°55'2 1.0
2015-Apr-21 20:10S 27°19' E 032°57'1 0.7
2015-Apr-21 19:10S 27°19' E 032°57'1 0.9
2015-Apr-21 18:10S 27°18' E 032°57'2 2.5
2015-Apr-21 17:10S 27°15' E 032°58'0 0.0
2015-Apr-21 16:10S 27°15' E 032°58'2 1.8
2015-Apr-21 15:10S 27°14' E 032°60'2 1.2
2015-Apr-21 13:10S 27°12' E 033°01'6 0.8
2015-Apr-21 06:10S 27°08' E 033°06'1 0.8 28.7
2015-Apr-21 05:10S 27°08' E 033°07'2 1.9 28.7
2015-Apr-21 04:10S 27°06' E 033°08'4 0.7 28.7
2015-Apr-20 22:10S 27°04' E 033°13'9 1.3 28.8
2015-Apr-20 15:10S 26°59' E 033°20'   29.1

Dump ship's entire track history